首页
METAR-TAF:

METAR-TAF

机场 :

恩吉利國際機場

金夏沙, 刚果

纬度: 04-23S, 经度: 015-26E, 海拔: 309米

当前天气观测

该预报发布于35分钟前的13:00 UTC
风速12节,风向
温度 32°C
湿度 56%
气压 1011 hPa
能見度: 9000
多云层高于2400英尺
少量云层高于3000英尺, 塔状积云.

METAR: FZAA 171300Z 36012KT 9000 BKN024 FEW030TCU 32/22 Q1011 NOSIG

时间: 14:35 (13:35 UTC)

预报

该预报发布于2小时和35分钟前的11:00 UTC
预报有效从17日的 12点(UTC)到 18日的 18点(UTC)
风速10节,风向西转西北
能見度: 8000
多云层高于2200英尺
少量云层高于3000英尺, 积雨云.
几率 30% :
短暂存在
从 17日的 14点(UTC)到 17日的 18点(UTC)
雷暴
成为
从 17日的 20点(UTC)到 17日的 22点(UTC)
风速4节,风向
散云层高于1600英尺
成为
从 18日的 10点(UTC)到 18日的 12点(UTC)
风速10节,风向北转西北
散云层高于2400英尺
少量云层高于3000英尺, 积雨云.
几率 30% :
短暂存在
从 18日的 13点(UTC)到 18日的 17点(UTC)
雷暴

TAF: FZAA 171100Z 1712/1818 30010KT 8000 BKN022 FEW030CB PROB30 TEMPO 1714/1718 TS BECMG 1720/1722 18004KT SCT016 BECMG 1810/1812 34010KT SCT024 FEW030CB PROB30 TEMPO 1813/1817 TS

超过4000个机场的气象观测和天气预报(METAR&TAF报告)。

可查询的气象台以黄色和红色小点在地图上表示。

将鼠标移到小点上方,可查看气象台名称。

然后点击查看天气观测和预报。

如需切换地图:点击带黑十字的绿色按钮放大地图;点击带横线的绿色按钮缩小地图;或者点击绿色箭头查看邻近地区的地图。


METAR-TAF: